sensor_id;sensor_type;location;lat;lon;timestamp;P1;durP1;ratioP1;P2;durP2;ratioP2
11964;SDS011;6042;41.326;19.826;2022-09-02T00:01:42;10.37;;;8.97;;
11964;SDS011;6042;41.326;19.826;2022-09-02T00:04:16;10.43;;;8.57;;
11964;SDS011;6042;41.326;19.826;2022-09-02T00:06:47;9.13;;;8.20;;
11964;SDS011;6042;41.326;19.826;2022-09-02T00:09:19;9.07;;;7.50;;
11964;SDS011;6042;41.326;19.826;2022-09-02T00:11:51;8.40;;;7.13;;
11964;SDS011;6042;41.326;19.826;2022-09-02T00:14:22;7.73;;;6.97;;
11964;SDS011;6042;41.326;19.826;2022-09-02T00:16:52;9.00;;;7.70;;
11964;SDS011;6042;41.326;19.826;2022-09-02T00:19:24;8.17;;;7.07;;
11964;SDS011;6042;41.326;19.826;2022-09-02T00:21:55;10.13;;;7.90;;
11964;SDS011;6042;41.326;19.826;2022-09-02T00:24:24;10.87;;;8.97;;
11964;SDS011;6042;41.326;19.826;2022-09-02T00:26:53;13.23;;;9.50;;
11964;SDS011;6042;41.326;19.826;2022-09-02T00:29:22;11.10;;;9.60;;
11964;SDS011;6042;41.326;19.826;2022-09-02T00:31:51;10.77;;;8.60;;
11964;SDS011;6042;41.326;19.826;2022-09-02T00:34:20;11.60;;;8.73;;
11964;SDS011;6042;41.326;19.826;2022-09-02T00:36:50;10.73;;;8.77;;
11964;SDS011;6042;41.326;19.826;2022-09-02T00:39:19;9.40;;;8.00;;
11964;SDS011;6042;41.326;19.826;2022-09-02T00:41:49;11.10;;;8.20;;
11964;SDS011;6042;41.326;19.826;2022-09-02T00:44:19;9.73;;;8.67;;
11964;SDS011;6042;41.326;19.826;2022-09-02T00:46:48;13.77;;;10.23;;
11964;SDS011;6042;41.326;19.826;2022-09-02T00:49:19;14.00;;;12.50;;
11964;SDS011;6042;41.326;19.826;2022-09-02T00:51:53;13.37;;;12.20;;
11964;SDS011;6042;41.326;19.826;2022-09-02T00:54:26;14.77;;;12.83;;
11964;SDS011;6042;41.326;19.826;2022-09-02T00:56:57;10.90;;;9.90;;
11964;SDS011;6042;41.326;19.826;2022-09-02T00:59:29;13.47;;;11.80;;
11964;SDS011;6042;41.326;19.826;2022-09-02T01:02:06;12.23;;;10.33;;
11964;SDS011;6042;41.326;19.826;2022-09-02T01:04:35;11.27;;;10.13;;
11964;SDS011;6042;41.326;19.826;2022-09-02T01:07:05;12.83;;;10.57;;
11964;SDS011;6042;41.326;19.826;2022-09-02T01:09:36;11.53;;;9.37;;
11964;SDS011;6042;41.326;19.826;2022-09-02T01:12:05;10.57;;;9.47;;
11964;SDS011;6042;41.326;19.826;2022-09-02T01:14:34;11.73;;;10.47;;
11964;SDS011;6042;41.326;19.826;2022-09-02T01:17:03;11.13;;;10.13;;
11964;SDS011;6042;41.326;19.826;2022-09-02T01:19:36;11.00;;;10.10;;
11964;SDS011;6042;41.326;19.826;2022-09-02T01:22:15;10.20;;;9.20;;
11964;SDS011;6042;41.326;19.826;2022-09-02T01:24:45;12.20;;;8.83;;
11964;SDS011;6042;41.326;19.826;2022-09-02T01:27:14;10.47;;;9.40;;
11964;SDS011;6042;41.326;19.826;2022-09-02T01:29:45;10.63;;;9.53;;
11964;SDS011;6042;41.326;19.826;2022-09-02T01:32:19;9.87;;;8.80;;
11964;SDS011;6042;41.326;19.826;2022-09-02T01:34:48;10.00;;;8.47;;
11964;SDS011;6042;41.326;19.826;2022-09-02T01:37:20;8.63;;;7.83;;
11964;SDS011;6042;41.326;19.826;2022-09-02T01:39:50;7.97;;;7.07;;
11964;SDS011;6042;41.326;19.826;2022-09-02T01:42:19;8.30;;;7.47;;
11964;SDS011;6042;41.326;19.826;2022-09-02T01:44:48;8.73;;;7.93;;
11964;SDS011;6042;41.326;19.826;2022-09-02T01:47:20;8.07;;;7.27;;
11964;SDS011;6042;41.326;19.826;2022-09-02T01:49:51;9.13;;;8.20;;
11964;SDS011;6042;41.326;19.826;2022-09-02T01:52:22;8.57;;;7.77;;
11964;SDS011;6042;41.326;19.826;2022-09-02T01:54:53;7.67;;;6.93;;
11964;SDS011;6042;41.326;19.826;2022-09-02T01:57:22;7.27;;;6.60;;
11964;SDS011;6042;41.326;19.826;2022-09-02T01:59:53;7.47;;;6.77;;
11964;SDS011;6042;41.326;19.826;2022-09-02T02:02:22;7.27;;;6.57;;
11964;SDS011;6042;41.326;19.826;2022-09-02T02:04:51;7.33;;;6.07;;
11964;SDS011;6042;41.326;19.826;2022-09-02T02:07:22;7.97;;;7.10;;
11964;SDS011;6042;41.326;19.826;2022-09-02T02:09:51;10.13;;;7.50;;
11964;SDS011;6042;41.326;19.826;2022-09-02T02:12:20;7.67;;;6.97;;
11964;SDS011;6042;41.326;19.826;2022-09-02T02:14:49;8.93;;;8.03;;
11964;SDS011;6042;41.326;19.826;2022-09-02T02:17:20;8.20;;;7.20;;
11964;SDS011;6042;41.326;19.826;2022-09-02T02:19:49;7.50;;;6.83;;
11964;SDS011;6042;41.326;19.826;2022-09-02T02:22:18;7.43;;;6.73;;
11964;SDS011;6042;41.326;19.826;2022-09-02T02:24:48;8.93;;;6.90;;
11964;SDS011;6042;41.326;19.826;2022-09-02T02:27:17;7.97;;;7.07;;
11964;SDS011;6042;41.326;19.826;2022-09-02T02:29:46;7.90;;;7.10;;
11964;SDS011;6042;41.326;19.826;2022-09-02T02:32:15;10.73;;;7.87;;
11964;SDS011;6042;41.326;19.826;2022-09-02T02:34:45;10.40;;;7.70;;
11964;SDS011;6042;41.326;19.826;2022-09-02T02:37:15;8.77;;;7.73;;
11964;SDS011;6042;41.326;19.826;2022-09-02T02:39:52;7.90;;;7.30;;
11964;SDS011;6042;41.326;19.826;2022-09-02T02:42:25;9.13;;;8.27;;
11964;SDS011;6042;41.326;19.826;2022-09-02T02:44:54;9.93;;;7.93;;
11964;SDS011;6042;41.326;19.826;2022-09-02T02:47:23;9.87;;;8.67;;
11964;SDS011;6042;41.326;19.826;2022-09-02T02:49:52;9.13;;;8.30;;
11964;SDS011;6042;41.326;19.826;2022-09-02T02:52:21;9.23;;;8.33;;
11964;SDS011;6042;41.326;19.826;2022-09-02T02:54:52;8.70;;;7.90;;
11964;SDS011;6042;41.326;19.826;2022-09-02T02:57:21;8.43;;;7.73;;
11964;SDS011;6042;41.326;19.826;2022-09-02T02:59:50;8.50;;;7.70;;
11964;SDS011;6042;41.326;19.826;2022-09-02T03:02:18;7.67;;;7.00;;
11964;SDS011;6042;41.326;19.826;2022-09-02T03:04:48;8.47;;;7.00;;
11964;SDS011;6042;41.326;19.826;2022-09-02T03:07:21;8.23;;;7.53;;
11964;SDS011;6042;41.326;19.826;2022-09-02T03:09:50;8.17;;;7.47;;
11964;SDS011;6042;41.326;19.826;2022-09-02T03:12:20;8.00;;;7.30;;
11964;SDS011;6042;41.326;19.826;2022-09-02T03:14:49;8.30;;;7.60;;
11964;SDS011;6042;41.326;19.826;2022-09-02T03:17:18;8.87;;;7.93;;
11964;SDS011;6042;41.326;19.826;2022-09-02T03:19:47;8.53;;;7.50;;
11964;SDS011;6042;41.326;19.826;2022-09-02T03:22:16;8.23;;;7.43;;
11964;SDS011;6042;41.326;19.826;2022-09-02T03:24:45;10.10;;;7.60;;
11964;SDS011;6042;41.326;19.826;2022-09-02T03:27:14;9.63;;;8.63;;
11964;SDS011;6042;41.326;19.826;2022-09-02T03:29:44;8.93;;;8.03;;
11964;SDS011;6042;41.326;19.826;2022-09-02T03:32:13;9.37;;;8.57;;
11964;SDS011;6042;41.326;19.826;2022-09-02T03:34:43;10.07;;;9.17;;
11964;SDS011;6042;41.326;19.826;2022-09-02T03:37:12;10.07;;;9.00;;
11964;SDS011;6042;41.326;19.826;2022-09-02T03:39:40;10.17;;;9.13;;
11964;SDS011;6042;41.326;19.826;2022-09-02T03:42:09;10.47;;;9.47;;
11964;SDS011;6042;41.326;19.826;2022-09-02T03:44:49;12.97;;;8.83;;
11964;SDS011;6042;41.326;19.826;2022-09-02T03:47:18;10.87;;;9.27;;
11964;SDS011;6042;41.326;19.826;2022-09-02T03:49:51;10.07;;;9.00;;
11964;SDS011;6042;41.326;19.826;2022-09-02T03:52:22;9.63;;;8.13;;
11964;SDS011;6042;41.326;19.826;2022-09-02T03:54:51;10.17;;;8.73;;
11964;SDS011;6042;41.326;19.826;2022-09-02T03:57:21;8.33;;;7.63;;
11964;SDS011;6042;41.326;19.826;2022-09-02T03:59:53;8.37;;;7.57;;
11964;SDS011;6042;41.326;19.826;2022-09-02T04:02:22;8.67;;;7.77;;
11964;SDS011;6042;41.326;19.826;2022-09-02T04:04:51;10.00;;;7.93;;
11964;SDS011;6042;41.326;19.826;2022-09-02T04:07:20;8.33;;;7.60;;
11964;SDS011;6042;41.326;19.826;2022-09-02T04:09:50;9.07;;;7.37;;
11964;SDS011;6042;41.326;19.826;2022-09-02T04:12:22;8.77;;;7.87;;
11964;SDS011;6042;41.326;19.826;2022-09-02T04:14:59;8.70;;;7.90;;
11964;SDS011;6042;41.326;19.826;2022-09-02T04:17:28;9.10;;;8.27;;
11964;SDS011;6042;41.326;19.826;2022-09-02T04:19:57;9.33;;;8.40;;
11964;SDS011;6042;41.326;19.826;2022-09-02T04:22:25;7.77;;;7.03;;
11964;SDS011;6042;41.326;19.826;2022-09-02T04:24:54;7.93;;;7.33;;
11964;SDS011;6042;41.326;19.826;2022-09-02T04:27:23;7.50;;;6.93;;
11964;SDS011;6042;41.326;19.826;2022-09-02T04:29:54;7.10;;;6.50;;
11964;SDS011;6042;41.326;19.826;2022-09-02T04:32:26;6.77;;;6.17;;
11964;SDS011;6042;41.326;19.826;2022-09-02T04:34:56;7.60;;;6.50;;
11964;SDS011;6042;41.326;19.826;2022-09-02T04:37:26;6.93;;;6.10;;
11964;SDS011;6042;41.326;19.826;2022-09-02T04:39:56;7.70;;;6.87;;
11964;SDS011;6042;41.326;19.826;2022-09-02T04:42:24;7.03;;;6.07;;
11964;SDS011;6042;41.326;19.826;2022-09-02T04:44:53;7.80;;;7.00;;
11964;SDS011;6042;41.326;19.826;2022-09-02T04:47:25;6.97;;;6.37;;
11964;SDS011;6042;41.326;19.826;2022-09-02T04:49:55;7.27;;;6.57;;
11964;SDS011;6042;41.326;19.826;2022-09-02T04:52:24;7.27;;;6.67;;
11964;SDS011;6042;41.326;19.826;2022-09-02T04:54:55;7.07;;;6.37;;
11964;SDS011;6042;41.326;19.826;2022-09-02T04:57:23;7.63;;;6.83;;
11964;SDS011;6042;41.326;19.826;2022-09-02T04:59:53;7.00;;;6.37;;
11964;SDS011;6042;41.326;19.826;2022-09-02T05:02:22;6.43;;;5.83;;
11964;SDS011;6042;41.326;19.826;2022-09-02T05:04:53;5.97;;;5.47;;
11964;SDS011;6042;41.326;19.826;2022-09-02T05:07:28;5.63;;;5.13;;
11964;SDS011;6042;41.326;19.826;2022-09-02T05:09:56;6.27;;;5.67;;
11964;SDS011;6042;41.326;19.826;2022-09-02T05:12:30;5.90;;;5.40;;
11964;SDS011;6042;41.326;19.826;2022-09-02T05:15:01;5.50;;;4.73;;
11964;SDS011;6042;41.326;19.826;2022-09-02T05:17:33;6.27;;;5.57;;
11964;SDS011;6042;41.326;19.826;2022-09-02T05:20:06;5.73;;;5.13;;
11964;SDS011;6042;41.326;19.826;2022-09-02T05:22:37;5.03;;;4.60;;
11964;SDS011;6042;41.326;19.826;2022-09-02T05:25:07;7.90;;;5.33;;
11964;SDS011;6042;41.326;19.826;2022-09-02T05:27:37;5.60;;;5.00;;
11964;SDS011;6042;41.326;19.826;2022-09-02T05:30:07;4.90;;;4.50;;
11964;SDS011;6042;41.326;19.826;2022-09-02T05:32:39;7.63;;;5.47;;
11964;SDS011;6042;41.326;19.826;2022-09-02T05:35:09;9.93;;;5.83;;
11964;SDS011;6042;41.326;19.826;2022-09-02T05:37:38;5.03;;;4.53;;
11964;SDS011;6042;41.326;19.826;2022-09-02T05:40:08;7.53;;;4.33;;
11964;SDS011;6042;41.326;19.826;2022-09-02T05:42:42;4.80;;;4.30;;
11964;SDS011;6042;41.326;19.826;2022-09-02T05:45:14;6.27;;;4.97;;
11964;SDS011;6042;41.326;19.826;2022-09-02T05:47:43;13.17;;;5.27;;
11964;SDS011;6042;41.326;19.826;2022-09-02T05:50:14;9.17;;;5.40;;
11964;SDS011;6042;41.326;19.826;2022-09-02T05:52:44;5.60;;;4.07;;
11964;SDS011;6042;41.326;19.826;2022-09-02T05:55:13;5.13;;;4.10;;
11964;SDS011;6042;41.326;19.826;2022-09-02T05:57:42;16.90;;;4.90;;
11964;SDS011;6042;41.326;19.826;2022-09-02T06:00:12;11.60;;;5.90;;
11964;SDS011;6042;41.326;19.826;2022-09-02T06:02:56;14.83;;;5.63;;
11964;SDS011;6042;41.326;19.826;2022-09-02T06:05:31;13.57;;;4.80;;
11964;SDS011;6042;41.326;19.826;2022-09-02T06:08:08;8.40;;;4.90;;
11964;SDS011;6042;41.326;19.826;2022-09-02T06:10:39;46.30;;;9.13;;
11964;SDS011;6042;41.326;19.826;2022-09-02T06:13:13;11.13;;;4.23;;
11964;SDS011;6042;41.326;19.826;2022-09-02T06:15:51;10.03;;;5.00;;
11964;SDS011;6042;41.326;19.826;2022-09-02T06:18:24;25.70;;;6.37;;
11964;SDS011;6042;41.326;19.826;2022-09-02T06:20:55;21.57;;;5.13;;
11964;SDS011;6042;41.326;19.826;2022-09-02T06:23:30;12.13;;;4.30;;
11964;SDS011;6042;41.326;19.826;2022-09-02T06:26:01;17.63;;;4.47;;
11964;SDS011;6042;41.326;19.826;2022-09-02T06:28:30;11.87;;;4.27;;
11964;SDS011;6042;41.326;19.826;2022-09-02T06:30:59;13.90;;;4.90;;
11964;SDS011;6042;41.326;19.826;2022-09-02T06:33:35;18.47;;;4.97;;
11964;SDS011;6042;41.326;19.826;2022-09-02T06:36:06;15.67;;;4.33;;
11964;SDS011;6042;41.326;19.826;2022-09-02T06:38:39;13.50;;;4.57;;
11964;SDS011;6042;41.326;19.826;2022-09-02T06:41:13;17.43;;;5.23;;
11964;SDS011;6042;41.326;19.826;2022-09-02T06:43:45;10.63;;;5.60;;
11964;SDS011;6042;41.326;19.826;2022-09-02T06:46:21;13.43;;;5.70;;
11964;SDS011;6042;41.326;19.826;2022-09-02T06:48:54;6.73;;;4.73;;
11964;SDS011;6042;41.326;19.826;2022-09-02T06:51:26;9.50;;;5.00;;
11964;SDS011;6042;41.326;19.826;2022-09-02T06:53:59;14.40;;;5.17;;
11964;SDS011;6042;41.326;19.826;2022-09-02T06:56:31;12.83;;;5.83;;
11964;SDS011;6042;41.326;19.826;2022-09-02T06:59:01;20.37;;;5.90;;
11964;SDS011;6042;41.326;19.826;2022-09-02T07:01:40;16.17;;;5.07;;
11964;SDS011;6042;41.326;19.826;2022-09-02T07:04:13;40.40;;;7.77;;
11964;SDS011;6042;41.326;19.826;2022-09-02T07:07:02;36.10;;;7.40;;
11964;SDS011;6042;41.326;19.826;2022-09-02T07:09:37;41.27;;;8.00;;
11964;SDS011;6042;41.326;19.826;2022-09-02T07:12:14;64.33;;;10.20;;
11964;SDS011;6042;41.326;19.826;2022-09-02T07:14:50;41.57;;;7.10;;
11964;SDS011;6042;41.326;19.826;2022-09-02T07:17:25;36.77;;;6.63;;
11964;SDS011;6042;41.326;19.826;2022-09-02T07:20:00;33.33;;;7.40;;
11964;SDS011;6042;41.326;19.826;2022-09-02T07:22:36;16.30;;;5.97;;
11964;SDS011;6042;41.326;19.826;2022-09-02T07:25:07;23.77;;;6.53;;
11964;SDS011;6042;41.326;19.826;2022-09-02T07:27:37;15.23;;;5.83;;
11964;SDS011;6042;41.326;19.826;2022-09-02T07:30:06;16.67;;;5.90;;
11964;SDS011;6042;41.326;19.826;2022-09-02T07:32:38;7.23;;;4.53;;
11964;SDS011;6042;41.326;19.826;2022-09-02T07:35:08;14.03;;;5.13;;
11964;SDS011;6042;41.326;19.826;2022-09-02T07:37:38;18.37;;;5.30;;
11964;SDS011;6042;41.326;19.826;2022-09-02T07:40:09;30.77;;;5.20;;
11964;SDS011;6042;41.326;19.826;2022-09-02T07:42:41;22.20;;;5.60;;
11964;SDS011;6042;41.326;19.826;2022-09-02T07:45:10;22.50;;;5.73;;
11964;SDS011;6042;41.326;19.826;2022-09-02T07:47:43;16.67;;;5.43;;
11964;SDS011;6042;41.326;19.826;2022-09-02T07:50:13;18.07;;;5.73;;
11964;SDS011;6042;41.326;19.826;2022-09-02T07:52:57;27.03;;;12.57;;
11964;SDS011;6042;41.326;19.826;2022-09-02T07:55:29;25.33;;;8.10;;
11964;SDS011;6042;41.326;19.826;2022-09-02T07:57:58;23.40;;;7.80;;
11964;SDS011;6042;41.326;19.826;2022-09-02T08:00:27;55.13;;;9.33;;
11964;SDS011;6042;41.326;19.826;2022-09-02T08:03:03;18.23;;;6.00;;
11964;SDS011;6042;41.326;19.826;2022-09-02T08:05:38;30.07;;;8.17;;
11964;SDS011;6042;41.326;19.826;2022-09-02T08:08:17;10.17;;;4.70;;
11964;SDS011;6042;41.326;19.826;2022-09-02T08:10:47;19.43;;;5.83;;
11964;SDS011;6042;41.326;19.826;2022-09-02T08:13:17;52.40;;;8.60;;
11964;SDS011;6042;41.326;19.826;2022-09-02T08:15:49;31.80;;;6.30;;
11964;SDS011;6042;41.326;19.826;2022-09-02T08:18:18;29.00;;;6.67;;
11964;SDS011;6042;41.326;19.826;2022-09-02T08:20:48;20.57;;;5.00;;
11964;SDS011;6042;41.326;19.826;2022-09-02T08:23:18;15.70;;;5.57;;
11964;SDS011;6042;41.326;19.826;2022-09-02T08:26:02;28.37;;;6.10;;
11964;SDS011;6042;41.326;19.826;2022-09-02T08:28:32;65.53;;;12.40;;
11964;SDS011;6042;41.326;19.826;2022-09-02T08:31:05;14.40;;;4.73;;
11964;SDS011;6042;41.326;19.826;2022-09-02T08:33:34;7.07;;;3.80;;
11964;SDS011;6042;41.326;19.826;2022-09-02T08:36:03;6.20;;;3.83;;
11964;SDS011;6042;41.326;19.826;2022-09-02T08:38:36;11.77;;;4.67;;
11964;SDS011;6042;41.326;19.826;2022-09-02T08:41:10;32.57;;;7.13;;
11964;SDS011;6042;41.326;19.826;2022-09-02T08:43:44;24.23;;;6.20;;
11964;SDS011;6042;41.326;19.826;2022-09-02T08:46:15;9.30;;;4.63;;
11964;SDS011;6042;41.326;19.826;2022-09-02T08:48:48;11.43;;;4.40;;
11964;SDS011;6042;41.326;19.826;2022-09-02T08:51:21;4.40;;;4.00;;
11964;SDS011;6042;41.326;19.826;2022-09-02T08:54:05;5.60;;;4.07;;
11964;SDS011;6042;41.326;19.826;2022-09-02T08:56:37;4.53;;;3.30;;
11964;SDS011;6042;41.326;19.826;2022-09-02T08:59:08;6.47;;;4.40;;
11964;SDS011;6042;41.326;19.826;2022-09-02T09:01:42;5.77;;;3.60;;
11964;SDS011;6042;41.326;19.826;2022-09-02T09:04:23;6.57;;;4.00;;
11964;SDS011;6042;41.326;19.826;2022-09-02T09:09:56;6.10;;;3.90;;
11964;SDS011;6042;41.326;19.826;2022-09-02T09:12:45;4.90;;;3.77;;
11964;SDS011;6042;41.326;19.826;2022-09-02T09:15:30;4.70;;;4.27;;
11964;SDS011;6042;41.326;19.826;2022-09-02T09:18:03;6.40;;;4.27;;
11964;SDS011;6042;41.326;19.826;2022-09-02T09:20:36;7.70;;;4.90;;
11964;SDS011;6042;41.326;19.826;2022-09-02T09:23:08;7.10;;;4.97;;
11964;SDS011;6042;41.326;19.826;2022-09-02T09:25:52;7.60;;;4.70;;
11964;SDS011;6042;41.326;19.826;2022-09-02T09:28:26;6.47;;;4.77;;
11964;SDS011;6042;41.326;19.826;2022-09-02T09:30:55;4.90;;;4.50;;
11964;SDS011;6042;41.326;19.826;2022-09-02T09:33:26;5.87;;;4.90;;
11964;SDS011;6042;41.326;19.826;2022-09-02T09:35:54;5.17;;;4.60;;
11964;SDS011;6042;41.326;19.826;2022-09-02T09:38:28;6.70;;;4.43;;
11964;SDS011;6042;41.326;19.826;2022-09-02T09:43:48;13.00;;;4.80;;
11964;SDS011;6042;41.326;19.826;2022-09-02T09:46:25;7.53;;;4.53;;
11964;SDS011;6042;41.326;19.826;2022-09-02T09:48:55;11.50;;;5.30;;
11964;SDS011;6042;41.326;19.826;2022-09-02T09:51:23;4.63;;;4.13;;
11964;SDS011;6042;41.326;19.826;2022-09-02T09:53:52;9.70;;;4.30;;
11964;SDS011;6042;41.326;19.826;2022-09-02T09:56:43;4.60;;;3.60;;
11964;SDS011;6042;41.326;19.826;2022-09-02T10:02:15;12.10;;;4.70;;
11964;SDS011;6042;41.326;19.826;2022-09-02T10:04:47;7.80;;;4.50;;
11964;SDS011;6042;41.326;19.826;2022-09-02T10:10:11;4.27;;;2.67;;
11964;SDS011;6042;41.326;19.826;2022-09-02T10:12:46;4.00;;;3.10;;
11964;SDS011;6042;41.326;19.826;2022-09-02T10:15:18;4.90;;;3.50;;
11964;SDS011;6042;41.326;19.826;2022-09-02T10:17:54;4.20;;;3.37;;
11964;SDS011;6042;41.326;19.826;2022-09-02T10:20:37;5.77;;;5.10;;
11964;SDS011;6042;41.326;19.826;2022-09-02T10:23:39;7.27;;;4.93;;
11964;SDS011;6042;41.326;19.826;2022-09-02T10:26:15;6.43;;;5.83;;
11964;SDS011;6042;41.326;19.826;2022-09-02T10:29:04;5.53;;;5.00;;
11964;SDS011;6042;41.326;19.826;2022-09-02T10:31:54;8.13;;;5.40;;
11964;SDS011;6042;41.326;19.826;2022-09-02T10:34:35;19.13;;;6.73;;
11964;SDS011;6042;41.326;19.826;2022-09-02T10:37:10;11.90;;;4.87;;
11964;SDS011;6042;41.326;19.826;2022-09-02T10:39:50;11.80;;;4.80;;
11964;SDS011;6042;41.326;19.826;2022-09-02T10:42:33;28.83;;;6.77;;
11964;SDS011;6042;41.326;19.826;2022-09-02T10:45:14;15.93;;;6.23;;
11964;SDS011;6042;41.326;19.826;2022-09-02T10:47:47;20.73;;;6.40;;
11964;SDS011;6042;41.326;19.826;2022-09-02T10:50:31;14.30;;;4.73;;
11964;SDS011;6042;41.326;19.826;2022-09-02T10:53:13;22.63;;;5.40;;
11964;SDS011;6042;41.326;19.826;2022-09-02T10:55:57;9.73;;;4.53;;
11964;SDS011;6042;41.326;19.826;2022-09-02T10:58:36;13.80;;;5.43;;
11964;SDS011;6042;41.326;19.826;2022-09-02T11:01:13;6.53;;;4.20;;
11964;SDS011;6042;41.326;19.826;2022-09-02T11:03:51;7.20;;;5.47;;
11964;SDS011;6042;41.326;19.826;2022-09-02T11:06:29;8.57;;;4.20;;
11964;SDS011;6042;41.326;19.826;2022-09-02T11:09:25;8.87;;;3.43;;
11964;SDS011;6042;41.326;19.826;2022-09-02T11:12:01;21.20;;;5.03;;
11964;SDS011;6042;41.326;19.826;2022-09-02T11:14:36;8.90;;;4.50;;
11964;SDS011;6042;41.326;19.826;2022-09-02T11:17:16;13.03;;;4.93;;
11964;SDS011;6042;41.326;19.826;2022-09-02T11:19:53;12.97;;;5.17;;
11964;SDS011;6042;41.326;19.826;2022-09-02T11:22:27;6.37;;;4.30;;
11964;SDS011;6042;41.326;19.826;2022-09-02T11:25:04;15.97;;;5.33;;
11964;SDS011;6042;41.326;19.826;2022-09-02T11:27:37;19.23;;;5.53;;
11964;SDS011;6042;41.326;19.826;2022-09-02T11:30:14;16.47;;;4.83;;
11964;SDS011;6042;41.326;19.826;2022-09-02T11:32:51;34.53;;;10.33;;
11964;SDS011;6042;41.326;19.826;2022-09-02T11:35:26;13.83;;;5.17;;
11964;SDS011;6042;41.326;19.826;2022-09-02T11:37:58;15.90;;;4.67;;
11964;SDS011;6042;41.326;19.826;2022-09-02T11:40:30;5.27;;;3.40;;
11964;SDS011;6042;41.326;19.826;2022-09-02T11:43:16;17.90;;;5.30;;
11964;SDS011;6042;41.326;19.826;2022-09-02T11:46:01;8.77;;;3.33;;
11964;SDS011;6042;41.326;19.826;2022-09-02T11:51:53;4.87;;;3.73;;
11964;SDS011;6042;41.326;19.826;2022-09-02T11:54:35;7.77;;;5.00;;
11964;SDS011;6042;41.326;19.826;2022-09-02T11:57:09;9.13;;;4.20;;
11964;SDS011;6042;41.326;19.826;2022-09-02T12:02:40;8.45;;;5.90;;
11964;SDS011;6042;41.326;19.826;2022-09-02T12:14:07;4.40;;;2.80;;
11964;SDS011;6042;41.326;19.826;2022-09-02T12:16:40;3.20;;;2.40;;
11964;SDS011;6042;41.326;19.826;2022-09-02T12:22:24;5.83;;;2.73;;
11964;SDS011;6042;41.326;19.826;2022-09-02T12:24:58;3.60;;;2.90;;
11964;SDS011;6042;41.326;19.826;2022-09-02T12:27:29;4.13;;;2.90;;
11964;SDS011;6042;41.326;19.826;2022-09-02T12:30:03;3.23;;;2.30;;
11964;SDS011;6042;41.326;19.826;2022-09-02T12:35:49;5.37;;;1.73;;
11964;SDS011;6042;41.326;19.826;2022-09-02T12:41:19;2.57;;;1.20;;
11964;SDS011;6042;41.326;19.826;2022-09-02T12:44:03;2.67;;;1.83;;
11964;SDS011;6042;41.326;19.826;2022-09-02T12:49:46;2.53;;;2.07;;
11964;SDS011;6042;41.326;19.826;2022-09-02T12:52:41;5.47;;;2.30;;
11964;SDS011;6042;41.326;19.826;2022-09-02T12:55:14;4.20;;;2.77;;
11964;SDS011;6042;41.326;19.826;2022-09-02T12:57:50;2.93;;;2.73;;
11964;SDS011;6042;41.326;19.826;2022-09-02T13:00:25;6.90;;;3.37;;
11964;SDS011;6042;41.326;19.826;2022-09-02T13:03:00;5.70;;;2.90;;
11964;SDS011;6042;41.326;19.826;2022-09-02T13:05:45;4.33;;;2.70;;
11964;SDS011;6042;41.326;19.826;2022-09-02T13:08:36;3.70;;;3.30;;
11964;SDS011;6042;41.326;19.826;2022-09-02T13:17:21;4.03;;;3.40;;
11964;SDS011;6042;41.326;19.826;2022-09-02T13:20:15;4.50;;;3.30;;
11964;SDS011;6042;41.326;19.826;2022-09-02T13:29:25;5.73;;;5.20;;
11964;SDS011;6042;41.326;19.826;2022-09-02T13:32:11;5.00;;;3.47;;
11964;SDS011;6042;41.326;19.826;2022-09-02T13:34:42;5.67;;;3.87;;
11964;SDS011;6042;41.326;19.826;2022-09-02T13:37:29;5.90;;;3.43;;
11964;SDS011;6042;41.326;19.826;2022-09-02T13:40:04;8.27;;;5.30;;
11964;SDS011;6042;41.326;19.826;2022-09-02T13:42:46;8.17;;;5.33;;
11964;SDS011;6042;41.326;19.826;2022-09-02T13:45:17;8.07;;;4.60;;
11964;SDS011;6042;41.326;19.826;2022-09-02T13:47:47;4.93;;;4.20;;
11964;SDS011;6042;41.326;19.826;2022-09-02T13:50:19;3.53;;;3.23;;
11964;SDS011;6042;41.326;19.826;2022-09-02T13:52:50;4.60;;;2.70;;
11964;SDS011;6042;41.326;19.826;2022-09-02T13:55:46;9.63;;;3.70;;
11964;SDS011;6042;41.326;19.826;2022-09-02T13:58:21;11.73;;;3.20;;
11964;SDS011;6042;41.326;19.826;2022-09-02T14:03:48;12.73;;;4.10;;
11964;SDS011;6042;41.326;19.826;2022-09-02T14:06:19;12.87;;;4.17;;
11964;SDS011;6042;41.326;19.826;2022-09-02T14:08:50;18.63;;;7.60;;
11964;SDS011;6042;41.326;19.826;2022-09-02T14:11:22;33.00;;;5.65;;
11964;SDS011;6042;41.326;19.826;2022-09-02T14:13:52;56.13;;;6.70;;
11964;SDS011;6042;41.326;19.826;2022-09-02T14:16:29;10.18;;;4.05;;
11964;SDS011;6042;41.326;19.826;2022-09-02T14:19:06;6.55;;;4.18;;
11964;SDS011;6042;41.326;19.826;2022-09-02T14:21:44;6.53;;;2.13;;
11964;SDS011;6042;41.326;19.826;2022-09-02T14:24:16;4.82;;;2.10;;
11964;SDS011;6042;41.326;19.826;2022-09-02T14:26:49;20.15;;;3.08;;
11964;SDS011;6042;41.326;19.826;2022-09-02T14:29:20;15.60;;;3.65;;
11964;SDS011;6042;41.326;19.826;2022-09-02T14:32:08;24.98;;;4.60;;
11964;SDS011;6042;41.326;19.826;2022-09-02T14:34:40;12.35;;;6.10;;
11964;SDS011;6042;41.326;19.826;2022-09-02T14:37:15;6.72;;;3.63;;
11964;SDS011;6042;41.326;19.826;2022-09-02T14:40:01;11.43;;;3.05;;
11964;SDS011;6042;41.326;19.826;2022-09-02T14:42:43;10.85;;;3.05;;
11964;SDS011;6042;41.326;19.826;2022-09-02T14:45:23;9.25;;;2.72;;
11964;SDS011;6042;41.326;19.826;2022-09-02T14:47:55;55.50;;;7.57;;
11964;SDS011;6042;41.326;19.826;2022-09-02T14:50:28;85.65;;;9.60;;
11964;SDS011;6042;41.326;19.826;2022-09-02T14:53:00;39.95;;;5.78;;
11964;SDS011;6042;41.326;19.826;2022-09-02T14:55:39;7.78;;;2.30;;
11964;SDS011;6042;41.326;19.826;2022-09-02T14:58:13;10.82;;;2.92;;
11964;SDS011;6042;41.326;19.826;2022-09-02T15:00:44;9.57;;;2.70;;
11964;SDS011;6042;41.326;19.826;2022-09-02T15:03:15;5.75;;;2.50;;
11964;SDS011;6042;41.326;19.826;2022-09-02T15:05:43;4.05;;;2.20;;
11964;SDS011;6042;41.326;19.826;2022-09-02T15:08:12;6.75;;;2.28;;
11964;SDS011;6042;41.326;19.826;2022-09-02T15:10:41;3.08;;;1.77;;
11964;SDS011;6042;41.326;19.826;2022-09-02T15:13:12;4.40;;;2.15;;
11964;SDS011;6042;41.326;19.826;2022-09-02T15:15:46;3.88;;;2.05;;
11964;SDS011;6042;41.326;19.826;2022-09-02T15:18:17;2.42;;;1.85;;
11964;SDS011;6042;41.326;19.826;2022-09-02T15:20:46;20.83;;;3.63;;
11964;SDS011;6042;41.326;19.826;2022-09-02T15:23:14;4.75;;;2.20;;
11964;SDS011;6042;41.326;19.826;2022-09-02T15:25:43;18.77;;;3.37;;
11964;SDS011;6042;41.326;19.826;2022-09-02T15:28:12;9.17;;;2.37;;
11964;SDS011;6042;41.326;19.826;2022-09-02T15:30:40;21.55;;;4.13;;
11964;SDS011;6042;41.326;19.826;2022-09-02T15:33:09;72.25;;;9.50;;
11964;SDS011;6042;41.326;19.826;2022-09-02T15:35:44;8.82;;;3.25;;
11964;SDS011;6042;41.326;19.826;2022-09-02T15:38:13;2.47;;;2.27;;
11964;SDS011;6042;41.326;19.826;2022-09-02T15:40:42;15.40;;;3.43;;
11964;SDS011;6042;41.326;19.826;2022-09-02T15:43:11;16.67;;;3.63;;
11964;SDS011;6042;41.326;19.826;2022-09-02T15:45:43;30.37;;;4.77;;
11964;SDS011;6042;41.326;19.826;2022-09-02T15:48:14;11.17;;;3.20;;
11964;SDS011;6042;41.326;19.826;2022-09-02T15:50:42;2.67;;;1.30;;
11964;SDS011;6042;41.326;19.826;2022-09-02T15:53:13;4.23;;;1.30;;
11964;SDS011;6042;41.326;19.826;2022-09-02T15:55:41;19.20;;;3.03;;
11964;SDS011;6042;41.326;19.826;2022-09-02T15:58:10;26.67;;;3.13;;
11964;SDS011;6042;41.326;19.826;2022-09-02T16:00:39;11.50;;;2.20;;
11964;SDS011;6042;41.326;19.826;2022-09-02T16:03:09;28.87;;;3.17;;
11964;SDS011;6042;41.326;19.826;2022-09-02T16:05:38;11.13;;;2.53;;
11964;SDS011;6042;41.326;19.826;2022-09-02T16:08:10;167.30;;;16.33;;
11964;SDS011;6042;41.326;19.826;2022-09-02T16:10:39;4.17;;;2.10;;